Garden Prairie, Illinois
Current Conditions -  °F | °C
As of 6:54 PM on Wednesday 22 Oct 2014 (Local Time) from KRFD Reporting Station
Few Clouds Few Clouds  
Wind Chill: 50°   Ceiling: Unl
Heat Index: 50°   Visibility: 10mi
Dew Point: 36°   Wind: 6mph
Humidity: 59%   Direction: 140°SE
Pressure: 30.26"   Gusts: NA
Location:  42.25°N, 88.72°W
Report Text: KRFD 222354Z 14005KT 10SM FEW250 10/02 A3026 RMK AO2 SLP252 T01000022 10156 20100 55006
Loading
Personal Weather Stations






























Interactive Weather Map
Tropical Storm Tracking
New forecast layout! Learn more

10-Day Weather Forecast

Advertisements
Track Severe Weather on mobile